TimeMST,TemperatureF,Dew PointF,Humidity,Sea Level PressureIn,VisibilityMPH,Wind Direction,Wind SpeedMPH,Gust SpeedMPH,PrecipitationIn,Events,Conditions,WindDirDegrees,DateUTC
12:53 AM,24.1,19.0,81,30.13,10.0,East,4.6,-,N/A,,Clear,100,2013-12-24 07:53:00
1:53 AM,26.1,21.0,81,30.11,10.0,ESE,8.1,-,N/A,,Clear,120,2013-12-24 08:53:00
2:53 AM,23.0,19.0,85,30.09,10.0,ESE,3.5,-,N/A,,Clear,120,2013-12-24 09:53:00
3:53 AM,21.9,18.0,85,30.07,10.0,Calm,Calm,-,N/A,,Clear,0,2013-12-24 10:53:00
4:53 AM,21.0,18.0,88,30.06,10.0,NW,4.6,-,N/A,,Scattered Clouds,310,2013-12-24 11:53:00
5:53 AM,39.9,28.9,65,29.96,10.0,West,10.4,-,N/A,,Clear,280,2013-12-24 12:53:00
6:53 AM,43.0,28.9,58,29.96,10.0,WNW,12.7,-,N/A,,Clear,290,2013-12-24 13:53:00
7:24 AM,39.2,28.4,65,29.92,10.0,NNW,15.0,-,N/A,,Clear,340,2013-12-24 14:24:00
7:53 AM,44.1,28.9,55,29.99,10.0,NW,20.7,31.1,N/A,,Clear,310,2013-12-24 14:53:00
8:53 AM,39.0,32.0,76,30.06,10.0,NNW,24.2,29.9,N/A,,Partly Cloudy,340,2013-12-24 15:53:00
9:53 AM,37.9,30.9,76,30.12,10.0,NNW,18.4,28.8,N/A,,Overcast,330,2013-12-24 16:53:00
10:25 AM,37.4,30.2,75,30.05,10.0,NW,20.7,29.9,N/A,,Overcast,310,2013-12-24 17:25:00
10:33 AM,37.4,30.2,75,30.05,10.0,WNW,17.3,27.6,N/A,,Overcast,300,2013-12-24 17:33:00
10:53 AM,37.9,30.0,73,30.14,10.0,WNW,17.3,29.9,N/A,,Overcast,300,2013-12-24 17:53:00
11:53 AM,37.9,30.9,76,30.14,10.0,WNW,15.0,-,N/A,,Overcast,300,2013-12-24 18:53:00
12:36 PM,39.2,30.2,70,30.09,10.0,NW,21.9,32.2,N/A,,Overcast,310,2013-12-24 19:36:00
12:53 PM,39.0,28.9,67,30.16,10.0,NW,21.9,34.5,N/A,,Overcast,320,2013-12-24 19:53:00
1:53 PM,37.9,28.9,70,30.19,10.0,NW,24.2,31.1,N/A,,Overcast,310,2013-12-24 20:53:00
2:53 PM,37.9,28.9,70,30.21,10.0,WNW,19.6,31.1,N/A,,Overcast,300,2013-12-24 21:53:00
3:42 PM,37.4,26.6,65,30.18,10.0,NNW,27.6,33.4,N/A,,Overcast,330,2013-12-24 22:42:00
3:53 PM,37.0,27.0,67,30.27,10.0,NNW,16.1,25.3,N/A,,Overcast,330,2013-12-24 22:53:00
4:53 PM,34.0,25.0,70,30.31,10.0,NW,16.1,-,N/A,,Clear,320,2013-12-24 23:53:00
5:53 PM,30.9,24.1,76,30.29,10.0,West,9.2,-,N/A,,Clear,280,2013-12-25 00:53:00
6:53 PM,30.0,24.1,79,30.30,10.0,West,8.1,-,N/A,,Clear,270,2013-12-25 01:53:00
7:53 PM,27.0,23.0,85,30.30,10.0,WNW,6.9,-,N/A,,Clear,300,2013-12-25 02:53:00
8:53 PM,26.1,21.9,84,30.32,10.0,NNW,6.9,-,N/A,,Clear,330,2013-12-25 03:53:00
9:53 PM,24.1,21.0,88,30.33,10.0,NNW,4.6,-,N/A,,Clear,330,2013-12-25 04:53:00
10:53 PM,23.0,19.0,85,30.33,10.0,Calm,Calm,-,N/A,,Clear,0,2013-12-25 05:53:00
11:53 PM,19.9,17.1,89,30.34,10.0,NW,3.5,-,N/A,,Clear,310,2013-12-25 06:53:00